Time;durP1;ratioP1;P1;durP2;ratioP2;P2;SDS_P1;SDS_P2;PMS_P1;PMS_P2;Temp;Humidity;BMP_temperature;BMP_pressure;BME280_temperature;BME280_humidity;BME280_pressure;Samples;Min_cycle;Max_cycle;Signal;HPM_P1;HPM_P2
2023/11/02 00:02:04;;;;;;;0.20;0.00;;;;;;;;;;4967832;28;20039;-84
2023/11/02 00:04:31;;;;;;;0.20;0.10;;;;;;;;;;4971393;28;20554;-86
2023/11/02 00:07:06;;;;;;;1.55;0.08;;;;;;;;;;4960545;28;20042;-88
2023/11/02 00:09:35;;;;;;;0.20;0.00;;;;;;;;;;4970953;28;20119;-87
2023/11/02 00:12:07;;;;;;;0.20;0.00;;;;;;;;;;4975092;28;20034;-89
2023/11/02 00:14:53;;;;;;;0.20;0.10;;;;;;;;;;4994343;28;20042;-88
2023/11/02 00:17:58;;;;;;;0.20;0.00;;;;;;;;;;4977139;28;20042;-84
2023/11/02 00:23:55;;;;;;;0.20;0.10;;;;;;;;;;4974983;28;20096;-86
2023/11/02 00:26:40;;;;;;;0.20;0.00;;;;;;;;;;4972014;28;20505;-83
2023/11/02 00:29:12;;;;;;;0.20;0.00;;;;;;;;;;4948653;28;20061;-85
2023/11/02 00:31:44;;;;;;;0.80;0.25;;;;;;;;;;4951430;28;20042;-88
2023/11/02 00:34:10;;;;;;;0.20;0.00;;;;;;;;;;4974714;28;20056;-85
2023/11/02 00:36:42;;;;;;;0.20;0.00;;;;;;;;;;5006747;23;20048;-86
2023/11/02 00:39:20;;;;;;;0.20;0.05;;;;;;;;;;5012987;28;20378;-87
2023/11/02 00:42:05;;;;;;;;;;;;;;;;;;;;;
2023/11/02 00:44:35;;;;;;;0.20;0.10;;;;;;;;;;5010861;28;20088;-88
2023/11/02 00:47:04;;;;;;;0.20;0.10;;;;;;;;;;5011738;28;20037;-86
2023/11/02 00:49:39;;;;;;;0.20;0.08;;;;;;;;;;4995025;28;20045;-85
2023/11/02 00:52:21;;;;;;;0.20;0.10;;;;;;;;;;4994617;28;20129;-87
2023/11/02 00:55:10;;;;;;;0.20;0.10;;;;;;;;;;5011694;28;20046;-87
2023/11/02 00:58:08;;;;;;;0.20;0.00;;;;;;;;;;4988271;28;20095;-86
2023/11/02 01:00:52;;;;;;;0.28;0.28;;;;;;;;;;4983410;28;20064;-87
2023/11/02 01:03:24;;;;;;;0.20;0.10;;;;;;;;;;5009093;28;20096;-90
2023/11/02 01:05:56;;;;;;;0.20;0.10;;;;;;;;;;4992927;28;20125;-85
2023/11/02 01:08:33;;;;;;;0.20;0.10;;;;;;;;;;4995814;28;20049;-87
2023/11/02 01:11:05;;;;;;;0.20;0.00;;;;;;;;;;4995072;28;20041;-85
2023/11/02 01:13:37;;;;;;;0.20;0.00;;;;;;;;;;5004459;28;20064;-88
2023/11/02 01:16:10;;;;;;;0.20;0.10;;;;;;;;;;4992655;28;20411;-87
2023/11/02 01:19:10;;;;;;;0.20;0.10;;;;;;;;;;4999274;28;20045;-87
2023/11/02 01:21:49;;;;;;;0.20;0.10;;;;;;;;;;5006796;28;20441;-88
2023/11/02 01:24:23;;;;;;;0.20;0.00;;;;;;;;;;4989382;28;20041;-85
2023/11/02 01:27:08;;;;;;;0.20;0.00;;;;;;;;;;4994801;28;20049;-88
2023/11/02 01:29:49;;;;;;;0.20;0.10;;;;;;;;;;5012310;28;20125;-88
2023/11/02 01:32:36;;;;;;;0.20;0.10;;;;;;;;;;4995443;28;20034;-87
2023/11/02 01:35:28;;;;;;;0.20;0.10;;;;;;;;;;5004738;28;20040;-88
2023/11/02 01:37:57;;;;;;;0.20;0.00;;;;;;;;;;4949392;28;20055;-86
2023/11/02 01:40:36;;;;;;;0.43;0.10;;;;;;;;;;4995303;28;20057;-86
2023/11/02 01:43:04;;;;;;;0.20;0.00;;;;;;;;;;5010240;28;21264;-89
2023/11/02 01:45:44;;;;;;;0.20;0.00;;;;;;;;;;4990454;28;20406;-89
2023/11/02 01:48:21;;;;;;;0.20;0.10;;;;;;;;;;5004890;28;20034;-89
2023/11/02 01:51:10;;;;;;;0.20;0.15;;;;;;;;;;5012118;28;20069;-88
2023/11/02 01:54:12;;;;;;;0.20;0.10;;;;;;;;;;5004872;28;20041;-89
2023/11/02 01:57:29;;;;;;;0.20;0.05;;;;;;;;;;5025828;28;20032;-90
2023/11/02 02:00:06;;;;;;;0.20;0.00;;;;;;;;;;4949835;28;20054;-86
2023/11/02 02:06:06;;;;;;;0.20;0.10;;;;;;;;;;4966489;28;20625;-88
2023/11/02 02:09:03;;;;;;;0.20;0.00;;;;;;;;;;4951433;28;20054;-89
2023/11/02 02:12:11;;;;;;;0.20;0.10;;;;;;;;;;5003242;28;20079;-91
2023/11/02 02:15:16;;;;;;;0.20;0.00;;;;;;;;;;4943555;29;20055;-91
2023/11/02 02:18:18;;;;;;;0.20;0.00;;;;;;;;;;4994003;28;20575;-90
2023/11/02 02:20:47;;;;;;;0.20;0.10;;;;;;;;;;4994640;28;20049;-84
2023/11/02 02:23:35;;;;;;;0.20;0.00;;;;;;;;;;4989801;28;20502;-89
2023/11/02 02:26:34;;;;;;;0.20;0.00;;;;;;;;;;4996240;28;20774;-87
2023/11/02 02:29:33;;;;;;;0.20;0.10;;;;;;;;;;5017405;28;20038;-88
2023/11/02 02:35:21;;;;;;;0.20;0.10;;;;;;;;;;4970911;28;20181;-89
2023/11/02 02:37:50;;;;;;;0.40;0.32;;;;;;;;;;4950613;28;20051;-88
2023/11/02 02:40:25;;;;;;;0.20;0.10;;;;;;;;;;4994634;28;20115;-87
2023/11/02 02:43:26;;;;;;;0.20;0.10;;;;;;;;;;4996805;28;20060;-90
2023/11/02 02:45:55;;;;;;;0.20;0.00;;;;;;;;;;4970083;28;20498;-90
2023/11/02 02:48:42;;;;;;;0.20;0.10;;;;;;;;;;4995353;28;20053;-89
2023/11/02 02:51:29;;;;;;;0.20;0.00;;;;;;;;;;5011576;28;20038;-87
2023/11/02 02:54:15;;;;;;;0.20;0.10;;;;;;;;;;5014237;28;20651;-88
2023/11/02 02:56:42;;;;;;;0.20;0.10;;;;;;;;;;5010583;28;20047;-86
2023/11/02 02:59:36;;;;;;;0.20;0.00;;;;;;;;;;4995125;28;20041;-88
2023/11/02 03:02:05;;;;;;;0.20;0.00;;;;;;;;;;5007881;28;20033;-88
2023/11/02 03:04:34;;;;;;;0.20;0.10;;;;;;;;;;4998824;28;20048;-88
2023/11/02 03:07:15;;;;;;;0.20;0.00;;;;;;;;;;4997671;28;20048;-87
2023/11/02 03:10:10;;;;;;;0.20;0.00;;;;;;;;;;4996185;28;20030;-89
2023/11/02 03:13:03;;;;;;;0.20;0.08;;;;;;;;;;5017057;28;20484;-87
2023/11/02 03:15:49;;;;;;;0.20;0.03;;;;;;;;;;5006324;28;20052;-89
2023/11/02 03:18:29;;;;;;;0.20;0.08;;;;;;;;;;5005727;28;20056;-86
2023/11/02 03:21:18;;;;;;;0.20;0.10;;;;;;;;;;5013475;28;20037;-89
2023/11/02 03:24:06;;;;;;;0.20;0.10;;;;;;;;;;5013815;28;20050;-86
2023/11/02 03:26:32;;;;;;;0.20;0.00;;;;;;;;;;5007428;28;20064;-89
2023/11/02 03:29:28;;;;;;;0.20;0.10;;;;;;;;;;5011039;28;20524;-86
2023/11/02 03:32:06;;;;;;;0.20;0.00;;;;;;;;;;5010745;28;20118;-88
2023/11/02 03:34:37;;;;;;;0.20;0.03;;;;;;;;;;5007554;28;20579;-86
2023/11/02 03:37:26;;;;;;;0.20;0.00;;;;;;;;;;4996853;28;20687;-85
2023/11/02 03:40:10;;;;;;;0.20;0.10;;;;;;;;;;4995529;28;20103;-87
2023/11/02 03:42:52;;;;;;;0.20;0.00;;;;;;;;;;4997149;28;20417;-88
2023/11/02 03:45:42;;;;;;;0.20;0.10;;;;;;;;;;5014365;28;20068;-87
2023/11/02 03:48:20;;;;;;;0.20;0.10;;;;;;;;;;5010626;28;20088;-85
2023/11/02 03:51:21;;;;;;;0.20;0.10;;;;;;;;;;5008617;28;20081;-85
2023/11/02 03:54:11;;;;;;;0.20;0.00;;;;;;;;;;5006322;28;20042;-87
2023/11/02 03:57:02;;;;;;;0.20;0.10;;;;;;;;;;5004861;28;20537;-86
2023/11/02 03:59:59;;;;;;;0.20;0.00;;;;;;;;;;4988601;28;20095;-85
2023/11/02 04:05:24;;;;;;;0.20;0.10;;;;;;;;;;4998738;28;20034;-84
2023/11/02 04:07:53;;;;;;;0.20;0.10;;;;;;;;;;4999437;28;20069;-86
2023/11/02 04:10:36;;;;;;;;;;;;;;;;;;;;;
2023/11/02 04:13:22;;;;;;;0.20;0.00;;;;;;;;;;5009565;28;20045;-88
2023/11/02 04:15:48;;;;;;;0.20;0.00;;;;;;;;;;4995091;28;20037;-89
2023/11/02 04:18:25;;;;;;;0.20;0.10;;;;;;;;;;5008374;28;20056;-87
2023/11/02 04:20:52;;;;;;;0.20;0.00;;;;;;;;;;5008777;28;20045;-84
2023/11/02 04:23:22;;;;;;;0.20;0.00;;;;;;;;;;5012253;28;20130;-85
2023/11/02 04:25:54;;;;;;;0.20;0.10;;;;;;;;;;4994440;28;20088;-87
2023/11/02 04:28:39;;;;;;;0.20;0.00;;;;;;;;;;4989625;28;20049;-88
2023/11/02 04:31:14;;;;;;;0.20;0.10;;;;;;;;;;5006592;28;20041;-88
2023/11/02 04:33:42;;;;;;;0.20;0.05;;;;;;;;;;5000936;28;20428;-86
2023/11/02 04:36:12;;;;;;;0.20;0.00;;;;;;;;;;5005553;28;20049;-87
2023/11/02 04:38:44;;;;;;;0.20;0.08;;;;;;;;;;5008016;28;20184;-81
2023/11/02 04:41:16;;;;;;;0.20;0.00;;;;;;;;;;5010650;28;20038;-89
2023/11/02 04:43:51;;;;;;;0.20;0.00;;;;;;;;;;4995390;28;20043;-85
2023/11/02 04:46:23;;;;;;;0.20;0.00;;;;;;;;;;4996742;28;20073;-90
2023/11/02 04:48:50;;;;;;;0.20;0.00;;;;;;;;;;5008691;28;20045;-85
2023/11/02 04:51:19;;;;;;;0.20;0.10;;;;;;;;;;4994085;28;20029;-83
2023/11/02 04:53:49;;;;;;;0.20;0.10;;;;;;;;;;5012147;28;20278;-87
2023/11/02 04:56:29;;;;;;;0.20;0.00;;;;;;;;;;5011272;28;20052;-86
2023/11/02 04:58:55;;;;;;;0.20;0.10;;;;;;;;;;5009695;28;20037;-86
2023/11/02 05:01:21;;;;;;;0.20;0.10;;;;;;;;;;5008381;28;20490;-84
2023/11/02 05:03:58;;;;;;;0.20;0.10;;;;;;;;;;5011068;28;20286;-87
2023/11/02 05:06:26;;;;;;;0.20;0.00;;;;;;;;;;5006188;28;20041;-88
2023/11/02 05:09:02;;;;;;;0.20;0.10;;;;;;;;;;4994824;28;20041;-86
2023/11/02 05:11:28;;;;;;;0.20;0.00;;;;;;;;;;5018917;28;20052;-88
2023/11/02 05:14:14;;;;;;;0.20;0.00;;;;;;;;;;4992760;28;20047;-88
2023/11/02 05:16:40;;;;;;;0.20;0.10;;;;;;;;;;4992445;28;20111;-88
2023/11/02 05:19:10;;;;;;;0.20;0.00;;;;;;;;;;4990050;28;20056;-87
2023/11/02 05:21:50;;;;;;;0.20;0.00;;;;;;;;;;4988749;28;20049;-87
2023/11/02 05:24:21;;;;;;;0.20;0.00;;;;;;;;;;4987016;28;20037;-90
2023/11/02 05:26:50;;;;;;;0.20;0.00;;;;;;;;;;4996419;28;20045;-87
2023/11/02 05:29:37;;;;;;;0.20;0.00;;;;;;;;;;4985963;28;20041;-90
2023/11/02 05:32:12;;;;;;;0.20;0.10;;;;;;;;;;5005149;28;20052;-88
2023/11/02 05:34:40;;;;;;;0.20;0.00;;;;;;;;;;5005900;28;20048;-89
2023/11/02 05:37:07;;;;;;;0.20;0.00;;;;;;;;;;5001156;28;20048;-82
2023/11/02 05:39:33;;;;;;;0.20;0.00;;;;;;;;;;4990410;28;20052;-83
2023/11/02 05:42:01;;;;;;;0.20;0.00;;;;;;;;;;4985155;28;20517;-88
2023/11/02 05:44:27;;;;;;;0.20;0.10;;;;;;;;;;4988223;28;20438;-89
2023/11/02 05:46:59;;;;;;;0.20;0.00;;;;;;;;;;4998018;22;1135074;-83
2023/11/02 05:49:25;;;;;;;0.20;0.20;;;;;;;;;;5017236;28;20448;-82
2023/11/02 05:51:51;;;;;;;0.20;0.00;;;;;;;;;;5033335;28;20071;-81
2023/11/02 05:54:17;;;;;;;0.20;0.00;;;;;;;;;;5017551;28;20274;-82
2023/11/02 05:56:44;;;;;;;0.20;0.10;;;;;;;;;;5015427;28;20033;-83
2023/11/02 05:59:10;;;;;;;0.20;0.10;;;;;;;;;;5015197;28;21762;-81
2023/11/02 06:01:37;;;;;;;0.20;0.10;;;;;;;;;;5008799;28;20049;-81
2023/11/02 06:04:03;;;;;;;0.20;0.10;;;;;;;;;;5013908;28;20453;-80
2023/11/02 06:06:29;;;;;;;0.40;0.30;;;;;;;;;;4992562;28;20034;-82
2023/11/02 06:08:55;;;;;;;0.20;0.10;;;;;;;;;;4990469;28;20125;-80
2023/11/02 06:11:21;;;;;;;0.20;0.00;;;;;;;;;;5007887;28;20924;-81
2023/11/02 06:13:48;;;;;;;0.20;0.10;;;;;;;;;;5013030;28;20040;-82
2023/11/02 06:16:15;;;;;;;0.20;0.10;;;;;;;;;;5009530;28;20029;-81
2023/11/02 06:18:42;;;;;;;0.20;0.10;;;;;;;;;;5005537;28;20418;-80
2023/11/02 06:21:09;;;;;;;0.20;0.10;;;;;;;;;;5005721;28;20038;-81
2023/11/02 06:23:35;;;;;;;0.20;0.10;;;;;;;;;;5003790;28;20379;-81
2023/11/02 06:26:01;;;;;;;0.20;0.10;;;;;;;;;;5005730;28;20520;-81
2023/11/02 06:28:28;;;;;;;0.20;0.10;;;;;;;;;;5013106;28;20041;-82
2023/11/02 06:30:54;;;;;;;0.20;0.10;;;;;;;;;;5011219;28;20166;-81
2023/11/02 06:33:24;;;;;;;0.20;0.10;;;;;;;;;;4992150;28;20044;-83
2023/11/02 06:35:50;;;;;;;0.20;0.00;;;;;;;;;;5010082;28;20037;-81
2023/11/02 06:38:17;;;;;;;0.20;0.00;;;;;;;;;;5025630;28;20037;-87
2023/11/02 06:40:44;;;;;;;0.20;0.00;;;;;;;;;;5008917;28;20386;-83
2023/11/02 06:43:10;;;;;;;0.20;0.00;;;;;;;;;;5006844;28;20048;-83
2023/11/02 06:45:36;;;;;;;0.65;0.52;;;;;;;;;;5017782;28;20097;-84
2023/11/02 06:48:02;;;;;;;0.20;0.10;;;;;;;;;;5031714;28;20116;-81
2023/11/02 06:50:28;;;;;;;0.20;0.00;;;;;;;;;;5027722;28;20444;-82
2023/11/02 06:53:00;;;;;;;0.20;0.10;;;;;;;;;;5027234;28;20033;-84
2023/11/02 06:55:26;;;;;;;0.20;0.00;;;;;;;;;;5016516;28;20048;-82
2023/11/02 06:57:52;;;;;;;0.20;0.10;;;;;;;;;;5030973;28;20045;-82
2023/11/02 07:00:18;;;;;;;0.20;0.10;;;;;;;;;;5013629;28;20044;-83
2023/11/02 07:02:44;;;;;;;0.20;0.00;;;;;;;;;;5027372;28;20041;-84
2023/11/02 07:05:10;;;;;;;0.20;0.10;;;;;;;;;;5028365;28;20467;-83
2023/11/02 07:07:39;;;;;;;0.20;0.10;;;;;;;;;;5029872;28;20033;-81
2023/11/02 07:10:06;;;;;;;0.22;0.20;;;;;;;;;;5050784;28;20029;-83
2023/11/02 07:12:32;;;;;;;0.20;0.00;;;;;;;;;;5035533;28;20041;-82
2023/11/02 07:14:58;;;;;;;0.20;0.00;;;;;;;;;;5013425;28;20048;-79
2023/11/02 07:17:24;;;;;;;0.20;0.10;;;;;;;;;;5026632;28;20060;-83
2023/11/02 07:19:50;;;;;;;0.30;0.20;;;;;;;;;;5017467;28;20406;-83
2023/11/02 07:22:16;;;;;;;0.20;0.10;;;;;;;;;;5029068;28;20053;-84
2023/11/02 07:24:42;;;;;;;0.20;0.00;;;;;;;;;;5028567;28;20390;-83
2023/11/02 07:27:08;;;;;;;0.20;0.00;;;;;;;;;;5032619;28;20024;-84
2023/11/02 07:29:34;;;;;;;0.20;0.00;;;;;;;;;;5026860;28;20520;-84
2023/11/02 07:32:00;;;;;;;0.20;0.10;;;;;;;;;;5029346;28;20108;-84
2023/11/02 07:34:26;;;;;;;0.20;0.00;;;;;;;;;;5012263;28;20056;-81
2023/11/02 07:36:54;;;;;;;0.20;0.00;;;;;;;;;;5007319;28;20417;-83
2023/11/02 07:39:20;;;;;;;0.20;0.00;;;;;;;;;;5030483;28;20037;-84
2023/11/02 07:41:46;;;;;;;0.20;0.10;;;;;;;;;;5028176;28;20067;-84
2023/11/02 07:44:15;;;;;;;0.20;0.10;;;;;;;;;;5023315;28;20391;-82
2023/11/02 07:46:41;;;;;;;0.20;0.10;;;;;;;;;;5031096;28;20128;-83
2023/11/02 07:49:08;;;;;;;0.20;0.00;;;;;;;;;;5012453;28;20056;-85
2023/11/02 07:51:34;;;;;;;0.20;0.10;;;;;;;;;;5009770;28;20037;-83
2023/11/02 07:54:01;;;;;;;0.20;0.00;;;;;;;;;;5029722;28;20033;-83
2023/11/02 07:56:27;;;;;;;0.20;0.08;;;;;;;;;;5025370;28;20517;-83
2023/11/02 07:58:53;;;;;;;0.20;0.10;;;;;;;;;;5027604;28;20040;-84
2023/11/02 08:01:24;;;;;;;0.22;0.20;;;;;;;;;;5024363;28;20029;-84
2023/11/02 08:03:50;;;;;;;0.20;0.00;;;;;;;;;;5020777;28;20038;-83
2023/11/02 08:06:16;;;;;;;0.20;0.10;;;;;;;;;;5013141;28;20049;-83
2023/11/02 08:08:44;;;;;;;0.22;0.15;;;;;;;;;;5020689;28;20045;-83
2023/11/02 08:11:10;;;;;;;0.20;0.10;;;;;;;;;;5024826;28;20114;-86
2023/11/02 08:13:36;;;;;;;0.20;0.00;;;;;;;;;;5023409;28;20476;-83
2023/11/02 08:16:02;;;;;;;0.40;0.40;;;;;;;;;;5023782;28;20065;-84
2023/11/02 08:18:28;;;;;;;0.20;0.00;;;;;;;;;;5006409;28;20037;-82
2023/11/02 08:20:54;;;;;;;0.20;0.00;;;;;;;;;;5026550;28;20048;-84
2023/11/02 08:23:20;;;;;;;0.20;0.00;;;;;;;;;;5028231;28;20125;-83
2023/11/02 08:25:47;;;;;;;0.20;0.05;;;;;;;;;;5026140;28;20101;-84
2023/11/02 08:28:13;;;;;;;0.20;0.00;;;;;;;;;;5025146;28;20052;-82
2023/11/02 08:30:40;;;;;;;0.20;0.10;;;;;;;;;;5010796;28;20048;-84
2023/11/02 08:33:08;;;;;;;0.20;0.00;;;;;;;;;;5025773;28;20037;-83
2023/11/02 08:35:35;;;;;;;0.20;0.10;;;;;;;;;;5009012;28;20095;-83
2023/11/02 08:38:01;;;;;;;0.20;0.00;;;;;;;;;;5028424;28;20045;-85
2023/11/02 08:40:27;;;;;;;0.20;0.10;;;;;;;;;;5009958;28;20049;-84
2023/11/02 08:42:53;;;;;;;0.20;0.10;;;;;;;;;;5024434;28;21135;-85
2023/11/02 08:45:19;;;;;;;0.20;0.10;;;;;;;;;;5025021;28;20119;-82
2023/11/02 08:47:45;;;;;;;0.20;0.10;;;;;;;;;;5027623;28;20528;-84
2023/11/02 08:50:12;;;;;;;0.20;0.10;;;;;;;;;;5025806;28;20048;-82
2023/11/02 08:52:38;;;;;;;0.20;0.00;;;;;;;;;;5024980;28;20041;-82
2023/11/02 08:55:04;;;;;;;0.20;0.10;;;;;;;;;;5025328;28;20485;-82
2023/11/02 08:57:30;;;;;;;0.20;0.00;;;;;;;;;;5004195;28;20072;-83
2023/11/02 09:00:00;;;;;;;0.20;0.05;;;;;;;;;;5023377;28;20064;-84
2023/11/02 09:02:27;;;;;;;0.20;0.00;;;;;;;;;;5028303;28;20076;-83
2023/11/02 09:04:53;;;;;;;0.20;0.00;;;;;;;;;;5012719;28;20041;-81
2023/11/02 09:07:20;;;;;;;0.20;0.10;;;;;;;;;;5027647;28;20449;-83
2023/11/02 09:09:46;;;;;;;0.20;0.00;;;;;;;;;;5026827;28;20032;-85
2023/11/02 09:12:12;;;;;;;0.20;0.00;;;;;;;;;;5031270;28;20389;-83
2023/11/02 09:14:38;;;;;;;0.20;0.00;;;;;;;;;;5011315;28;20124;-85
2023/11/02 09:17:04;;;;;;;0.20;0.00;;;;;;;;;;5004214;28;20052;-77
2023/11/02 09:19:30;;;;;;;0.20;0.10;;;;;;;;;;5044003;28;20059;-81
2023/11/02 09:21:56;;;;;;;0.20;0.05;;;;;;;;;;5027239;28;20068;-82
2023/11/02 09:24:22;;;;;;;0.20;0.00;;;;;;;;;;5025516;28;20116;-79
2023/11/02 09:26:49;;;;;;;0.20;0.10;;;;;;;;;;5029280;28;20044;-87
2023/11/02 09:29:16;;;;;;;0.20;0.00;;;;;;;;;;5026595;28;20039;-83
2023/11/02 09:31:43;;;;;;;0.20;0.00;;;;;;;;;;5045722;28;20036;-82
2023/11/02 09:34:12;;;;;;;0.20;0.00;;;;;;;;;;5009112;28;20069;-82
2023/11/02 09:36:38;;;;;;;0.20;0.10;;;;;;;;;;5011674;28;20033;-83
2023/11/02 09:39:07;;;;;;;0.20;0.05;;;;;;;;;;5009473;28;20028;-84
2023/11/02 09:41:34;;;;;;;0.20;0.10;;;;;;;;;;5025118;28;20034;-84
2023/11/02 09:44:00;;;;;;;0.20;0.10;;;;;;;;;;5025586;28;20029;-84
2023/11/02 09:46:28;;;;;;;0.20;0.03;;;;;;;;;;5009727;28;20049;-80
2023/11/02 09:48:55;;;;;;;0.20;0.00;;;;;;;;;;5006897;28;20040;-83
2023/11/02 09:51:21;;;;;;;0.20;0.00;;;;;;;;;;5024200;28;20033;-82
2023/11/02 09:53:48;;;;;;;0.20;0.00;;;;;;;;;;5006668;28;20033;-84
2023/11/02 09:56:14;;;;;;;0.20;0.03;;;;;;;;;;5027876;28;20523;-83
2023/11/02 09:58:41;;;;;;;0.20;0.00;;;;;;;;;;5042142;28;20037;-83
2023/11/02 10:01:11;;;;;;;0.20;0.00;;;;;;;;;;5023492;28;20047;-85
2023/11/02 10:03:37;;;;;;;0.20;0.00;;;;;;;;;;5036934;28;20117;-82
2023/11/02 10:06:05;;;;;;;0.20;0.10;;;;;;;;;;5027676;28;20041;-83
2023/11/02 10:08:31;;;;;;;0.20;0.03;;;;;;;;;;5027409;28;20052;-86
2023/11/02 10:11:14;;;;;;;0.20;0.00;;;;;;;;;;5023623;28;20578;-84
2023/11/02 10:13:40;;;;;;;0.20;0.00;;;;;;;;;;5024978;28;20318;-84
2023/11/02 10:16:07;;;;;;;0.20;0.10;;;;;;;;;;5007448;28;20395;-84
2023/11/02 10:18:33;;;;;;;0.30;0.20;;;;;;;;;;5023706;28;20588;-84
2023/11/02 10:20:59;;;;;;;0.20;0.00;;;;;;;;;;5004928;28;20482;-81
2023/11/02 10:23:25;;;;;;;0.20;0.10;;;;;;;;;;5027396;28;20083;-84
2023/11/02 10:25:54;;;;;;;0.20;0.10;;;;;;;;;;5022763;28;20113;-84
2023/11/02 10:28:20;;;;;;;0.20;0.03;;;;;;;;;;5005575;28;20099;-85
2023/11/02 10:30:46;;;;;;;0.20;0.00;;;;;;;;;;5009489;28;20709;-84
2023/11/02 10:33:12;;;;;;;0.20;0.00;;;;;;;;;;5017839;28;20045;-83
2023/11/02 10:35:39;;;;;;;0.20;0.00;;;;;;;;;;5049989;28;20043;-84
2023/11/02 10:38:09;;;;;;;0.20;0.00;;;;;;;;;;5015370;28;20048;-86
2023/11/02 10:40:54;;;;;;;0.20;0.10;;;;;;;;;;5029364;28;20037;-83
2023/11/02 10:43:20;;;;;;;0.20;0.00;;;;;;;;;;5031427;28;20041;-83
2023/11/02 10:45:50;;;;;;;0.20;0.00;;;;;;;;;;5030819;28;20037;-83
2023/11/02 10:48:17;;;;;;;0.20;0.00;;;;;;;;;;5033742;28;20029;-86
2023/11/02 10:50:45;;;;;;;0.20;0.00;;;;;;;;;;5012069;28;20037;-83
2023/11/02 10:53:17;;;;;;;0.20;0.00;;;;;;;;;;5012440;28;20041;-84
2023/11/02 10:55:43;;;;;;;0.20;0.00;;;;;;;;;;5044150;28;20091;-85
2023/11/02 10:58:09;;;;;;;0.20;0.00;;;;;;;;;;5008147;28;20049;-85
2023/11/02 11:00:36;;;;;;;0.20;0.00;;;;;;;;;;5033006;28;20104;-84
2023/11/02 11:03:03;;;;;;;0.20;0.00;;;;;;;;;;5028617;28;20105;-84
2023/11/02 11:05:30;;;;;;;0.20;0.10;;;;;;;;;;5022789;28;20131;-83
2023/11/02 11:08:02;;;;;;;0.20;0.13;;;;;;;;;;5011636;28;20067;-85
2023/11/02 11:10:30;;;;;;;0.20;0.00;;;;;;;;;;5012340;28;20125;-82
2023/11/02 11:12:56;;;;;;;0.20;0.00;;;;;;;;;;5029046;28;20068;-83
2023/11/02 11:15:25;;;;;;;0.20;0.00;;;;;;;;;;5036694;28;20399;-85
2023/11/02 11:17:52;;;;;;;0.20;0.00;;;;;;;;;;5030227;28;20036;-82
2023/11/02 11:20:21;;;;;;;0.20;0.00;;;;;;;;;;5050333;28;20049;-82
2023/11/02 11:22:51;;;;;;;0.20;0.10;;;;;;;;;;5011425;28;20045;-84
2023/11/02 11:25:21;;;;;;;0.20;0.00;;;;;;;;;;5034364;28;20113;-85
2023/11/02 11:27:47;;;;;;;0.20;0.00;;;;;;;;;;5049491;28;20477;-85
2023/11/02 11:30:22;;;;;;;0.20;0.10;;;;;;;;;;5041463;28;20042;-82
2023/11/02 11:32:51;;;;;;;0.20;0.00;;;;;;;;;;5032037;28;20049;-83
2023/11/02 11:35:18;;;;;;;0.20;0.08;;;;;;;;;;5014905;28;20450;-80
2023/11/02 11:37:49;;;;;;;0.20;0.00;;;;;;;;;;5014992;28;20045;-82
2023/11/02 11:40:23;;;;;;;0.20;0.10;;;;;;;;;;5029168;28;20033;-83
2023/11/02 11:42:52;;;;;;;0.20;0.00;;;;;;;;;;5015392;28;20108;-85
2023/11/02 11:48:02;;;;;;;0.20;0.10;;;;;;;;;;4972806;28;20057;-85
2023/11/02 11:50:51;;;;;;;0.20;0.00;;;;;;;;;;4952952;28;20046;-83
2023/11/02 11:53:21;;;;;;;0.20;0.00;;;;;;;;;;4956916;28;20042;-86
2023/11/02 11:55:49;;;;;;;0.20;0.10;;;;;;;;;;4951727;28;20132;-86
2023/11/02 11:58:16;;;;;;;0.30;0.28;;;;;;;;;;4968747;28;20177;-88
2023/11/02 12:00:53;;;;;;;0.60;0.30;;;;;;;;;;4956584;28;20517;-83
2023/11/02 12:03:37;;;;;;;0.20;0.00;;;;;;;;;;4955285;28;20500;-88
2023/11/02 12:06:03;;;;;;;0.20;0.10;;;;;;;;;;4964674;28;20038;-84
2023/11/02 12:08:31;;;;;;;0.20;0.10;;;;;;;;;;4953892;28;20070;-83
2023/11/02 12:11:01;;;;;;;0.20;0.00;;;;;;;;;;4953320;28;20034;-86
2023/11/02 12:13:29;;;;;;;0.20;0.00;;;;;;;;;;4953693;28;20069;-87
2023/11/02 12:16:18;;;;;;;0.20;0.10;;;;;;;;;;4971789;28;20050;-82
2023/11/02 12:18:51;;;;;;;0.20;0.00;;;;;;;;;;4970352;28;20442;-85
2023/11/02 12:21:19;;;;;;;0.20;0.00;;;;;;;;;;4969854;28;20047;-85
2023/11/02 12:23:50;;;;;;;0.20;0.00;;;;;;;;;;4948727;28;20058;-83
2023/11/02 12:26:19;;;;;;;0.20;0.10;;;;;;;;;;4955515;28;20045;-86
2023/11/02 12:28:45;;;;;;;0.20;0.00;;;;;;;;;;4955160;28;20034;-83
2023/11/02 12:31:11;;;;;;;0.20;0.00;;;;;;;;;;4954255;28;20042;-84
2023/11/02 12:33:37;;;;;;;0.20;0.10;;;;;;;;;;4970972;28;20169;-87
2023/11/02 12:36:07;;;;;;;0.20;0.00;;;;;;;;;;4951932;28;20406;-82
2023/11/02 12:38:48;;;;;;;0.20;0.00;;;;;;;;;;4955803;28;20053;-84
2023/11/02 12:41:33;;;;;;;0.20;0.00;;;;;;;;;;4971282;28;20521;-85
2023/11/02 12:44:10;;;;;;;0.90;0.85;;;;;;;;;;4952456;28;20112;-83
2023/11/02 12:46:42;;;;;;;0.20;0.00;;;;;;;;;;4970009;28;20038;-87
2023/11/02 12:49:18;;;;;;;0.20;0.00;;;;;;;;;;4957145;28;20527;-82
2023/11/02 12:51:51;;;;;;;0.20;0.10;;;;;;;;;;4954635;28;20050;-86
2023/11/02 12:54:18;;;;;;;0.20;0.10;;;;;;;;;;4949906;28;20038;-85
2023/11/02 12:56:45;;;;;;;0.20;0.20;;;;;;;;;;4951497;28;20060;-82
2023/11/02 12:59:12;;;;;;;0.20;0.00;;;;;;;;;;4971653;28;20045;-82
2023/11/02 13:01:48;;;;;;;0.20;0.10;;;;;;;;;;4956033;28;20053;-85
2023/11/02 13:04:18;;;;;;;0.20;0.00;;;;;;;;;;4971954;28;20062;-85
2023/11/02 13:06:44;;;;;;;0.20;0.10;;;;;;;;;;4954182;28;20069;-83
2023/11/02 13:09:12;;;;;;;0.20;0.10;;;;;;;;;;4972300;28;20046;-86
2023/11/02 13:11:44;;;;;;;0.30;0.10;;;;;;;;;;4955091;28;20415;-85
2023/11/02 13:14:16;;;;;;;0.20;0.10;;;;;;;;;;4962990;28;20483;-84
2023/11/02 13:16:42;;;;;;;0.20;0.00;;;;;;;;;;4970237;28;20076;-83
2023/11/02 13:19:08;;;;;;;0.20;0.00;;;;;;;;;;4953382;28;20187;-84
2023/11/02 13:21:37;;;;;;;0.20;0.10;;;;;;;;;;4958407;28;20038;-85
2023/11/02 13:24:08;;;;;;;0.20;0.00;;;;;;;;;;4956581;28;20589;-85
2023/11/02 13:26:37;;;;;;;0.20;0.00;;;;;;;;;;4954264;28;20039;-84
2023/11/02 13:29:04;;;;;;;0.20;0.00;;;;;;;;;;4949093;28;20419;-84
2023/11/02 13:31:31;;;;;;;0.20;0.00;;;;;;;;;;4949842;28;20510;-85
2023/11/02 13:33:58;;;;;;;0.20;0.10;;;;;;;;;;4957029;28;20376;-89
2023/11/02 13:36:24;;;;;;;0.20;0.20;;;;;;;;;;4971151;28;20069;-87
2023/11/02 13:38:50;;;;;;;0.20;0.08;;;;;;;;;;4952497;28;20076;-84
2023/11/02 13:41:16;;;;;;;0.20;0.00;;;;;;;;;;4970154;28;20109;-86
2023/11/02 13:43:42;;;;;;;0.20;0.00;;;;;;;;;;4951214;28;20038;-84
2023/11/02 13:46:09;;;;;;;0.20;0.10;;;;;;;;;;4967713;28;20318;-84
2023/11/02 13:48:35;;;;;;;0.20;0.10;;;;;;;;;;4952144;28;20042;-85
2023/11/02 13:51:02;;;;;;;0.20;0.00;;;;;;;;;;4968417;28;20042;-85
2023/11/02 13:53:31;;;;;;;0.20;0.00;;;;;;;;;;4970379;28;20042;-84
2023/11/02 13:56:01;;;;;;;0.20;0.00;;;;;;;;;;4955474;28;20065;-84
2023/11/02 13:58:27;;;;;;;0.20;0.00;;;;;;;;;;4955133;28;20100;-84
2023/11/02 14:00:53;;;;;;;0.20;0.10;;;;;;;;;;4952447;28;20053;-86
2023/11/02 14:03:19;;;;;;;0.52;0.17;;;;;;;;;;4973240;28;20046;-84
2023/11/02 14:05:47;;;;;;;0.20;0.05;;;;;;;;;;4949321;28;20582;-86
2023/11/02 14:08:13;;;;;;;0.20;0.00;;;;;;;;;;4951598;28;20457;-84
2023/11/02 14:10:39;;;;;;;0.20;0.20;;;;;;;;;;4951301;28;20046;-86
2023/11/02 14:13:12;;;;;;;0.20;0.10;;;;;;;;;;4989048;28;20506;-87
2023/11/02 14:15:47;;;;;;;0.20;0.00;;;;;;;;;;4949443;28;20043;-86
2023/11/02 14:18:17;;;;;;;0.20;0.10;;;;;;;;;;4971728;28;20038;-83
2023/11/02 14:20:51;;;;;;;0.20;0.05;;;;;;;;;;4968297;28;20054;-85
2023/11/02 14:23:20;;;;;;;0.20;0.10;;;;;;;;;;4952481;28;20080;-86
2023/11/02 14:25:48;;;;;;;0.20;0.00;;;;;;;;;;4953461;28;20043;-81
2023/11/02 14:28:21;;;;;;;1.90;1.80;;;;;;;;;;4974341;28;20047;-87
2023/11/02 14:30:47;;;;;;;0.20;0.03;;;;;;;;;;4954255;28;20146;-82
2023/11/02 14:33:16;;;;;;;0.20;0.00;;;;;;;;;;4967541;28;20371;-87
2023/11/02 14:35:42;;;;;;;0.20;0.00;;;;;;;;;;4965246;28;20053;-85
2023/11/02 14:38:11;;;;;;;0.20;0.10;;;;;;;;;;4968087;28;20476;-81
2023/11/02 14:40:37;;;;;;;0.20;0.00;;;;;;;;;;4963760;28;20137;-84
2023/11/02 14:43:04;;;;;;;0.20;0.10;;;;;;;;;;4953944;28;20042;-84
2023/11/02 14:45:31;;;;;;;0.20;0.00;;;;;;;;;;4968761;28;20046;-84
2023/11/02 14:47:57;;;;;;;0.20;0.00;;;;;;;;;;4967442;28;20034;-83
2023/11/02 14:50:24;;;;;;;1.15;1.05;;;;;;;;;;4946462;28;20038;-85
2023/11/02 14:52:53;;;;;;;0.20;0.10;;;;;;;;;;4954712;28;20041;-85
2023/11/02 14:55:22;;;;;;;0.20;0.08;;;;;;;;;;4968739;28;20035;-85
2023/11/02 14:57:50;;;;;;;0.20;0.00;;;;;;;;;;4948530;28;20530;-84
2023/11/02 15:00:19;;;;;;;0.20;0.10;;;;;;;;;;4992637;28;20054;-83
2023/11/02 15:02:45;;;;;;;0.20;0.00;;;;;;;;;;4974335;28;20495;-86
2023/11/02 15:05:11;;;;;;;0.43;0.32;;;;;;;;;;4970724;28;20053;-84
2023/11/02 15:07:38;;;;;;;0.20;0.00;;;;;;;;;;4972421;28;20042;-85
2023/11/02 15:10:05;;;;;;;0.20;0.10;;;;;;;;;;4967166;28;20407;-85
2023/11/02 15:12:31;;;;;;;0.20;0.00;;;;;;;;;;4956781;28;20046;-84
2023/11/02 15:14:58;;;;;;;0.20;0.00;;;;;;;;;;4972753;28;20051;-87
2023/11/02 15:17:24;;;;;;;0.20;0.10;;;;;;;;;;4974168;28;20034;-85
2023/11/02 15:19:50;;;;;;;0.20;0.00;;;;;;;;;;4955128;28;20042;-85
2023/11/02 15:22:18;;;;;;;0.20;0.10;;;;;;;;;;4948077;28;20056;-86
2023/11/02 15:24:44;;;;;;;0.20;0.10;;;;;;;;;;4963483;28;20400;-84
2023/11/02 15:27:10;;;;;;;0.20;0.10;;;;;;;;;;4954948;28;20046;-84
2023/11/02 15:29:36;;;;;;;0.20;0.00;;;;;;;;;;4953936;28;20046;-84